createdAt,value
2023-02-06T00:00:44.027Z,766.94
2023-02-06T00:03:50.912Z,733.53
2023-02-06T00:06:59.406Z,713.58
2023-02-06T00:10:06.297Z,743.51
2023-02-06T00:13:12.409Z,727.82
2023-02-06T00:16:21.373Z,754.79
2023-02-06T00:19:27.385Z,782.89
2023-02-06T00:22:37.182Z,778.54
2023-02-06T00:25:43.149Z,753.42
2023-02-06T00:28:50.609Z,734.42
2023-02-06T00:31:56.892Z,759.60
2023-02-06T00:35:11.125Z,750.40
2023-02-06T00:38:22.345Z,711.33
2023-02-06T00:41:29.126Z,740.64
2023-02-06T00:44:35.054Z,731.43
2023-02-06T00:47:41.855Z,731.71
2023-02-06T00:50:50.494Z,822.23
2023-02-06T00:53:59.978Z,868.78
2023-02-06T00:57:05.895Z,805.04
2023-02-06T01:00:16.041Z,726.10
2023-02-06T01:03:21.912Z,750.60
2023-02-06T01:06:28.769Z,710.45
2023-02-06T01:09:37.401Z,670.78
2023-02-06T01:12:44.298Z,684.15
2023-02-06T01:15:52.163Z,668.81
2023-02-06T01:18:59.367Z,674.55
2023-02-06T01:22:05.351Z,705.75
2023-02-06T01:25:14.905Z,701.53
2023-02-06T01:28:21.165Z,661.74
2023-02-06T01:31:32.025Z,660.30
2023-02-06T01:34:37.919Z,687.47
2023-02-06T01:37:45.323Z,679.70
2023-02-06T01:41:00.371Z,713.37
2023-02-06T01:44:22.702Z,774.18
2023-02-06T01:47:30.396Z,788.51
2023-02-06T01:50:40.367Z,782.04
2023-02-06T01:53:56.792Z,764.97
2023-02-06T01:57:14.545Z,751.60
2023-02-06T02:00:27.640Z,652.54
2023-02-06T02:03:39.997Z,685.97
2023-02-06T02:06:47.461Z,699.83
2023-02-06T02:09:58.749Z,740.89
2023-02-06T02:13:17.603Z,805.94
2023-02-06T02:16:39.770Z,803.56
2023-02-06T02:20:48.869Z,788.00
2023-02-06T02:24:07.943Z,856.03
2023-02-06T02:27:47.772Z,701.48
2023-02-06T02:31:41.318Z,784.26
2023-02-06T02:35:25.765Z,765.51
2023-02-06T02:38:55.057Z,779.41
2023-02-06T02:42:14.743Z,779.24
2023-02-06T02:45:33.329Z,757.27
2023-02-06T02:48:47.246Z,680.66
2023-02-06T02:51:58.666Z,703.93
2023-02-06T02:55:23.603Z,716.21
2023-02-06T02:58:44.796Z,761.14
2023-02-06T03:02:02.637Z,836.89
2023-02-06T03:05:14.754Z,814.86
2023-02-06T03:08:47.145Z,785.23
2023-02-06T03:12:14.670Z,783.76
2023-02-06T03:15:34.942Z,771.96
2023-02-06T03:18:50.078Z,684.51
2023-02-06T03:21:57.001Z,720.82
2023-02-06T03:25:13.316Z,715.49
2023-02-06T03:28:31.164Z,783.82
2023-02-06T03:31:45.882Z,762.14
2023-02-06T03:35:06.465Z,787.19
2023-02-06T03:38:13.860Z,750.36
2023-02-06T03:41:34.969Z,741.15
2023-02-06T03:44:57.520Z,717.94
2023-02-06T03:48:18.294Z,703.10
2023-02-06T03:51:31.919Z,689.53
2023-02-06T03:54:46.100Z,698.48
2023-02-06T03:58:09.031Z,696.55
2023-02-06T04:01:17.540Z,700.76
2023-02-06T04:04:29.372Z,691.84
2023-02-06T04:07:43.063Z,670.88
2023-02-06T04:10:49.546Z,676.60
2023-02-06T04:13:58.920Z,680.44
2023-02-06T04:17:09.799Z,657.49
2023-02-06T04:20:17.106Z,656.06
2023-02-06T04:23:24.291Z,668.69
2023-02-06T04:26:31.201Z,638.21
2023-02-06T04:29:39.724Z,633.05
2023-02-06T04:32:46.786Z,634.21
2023-02-06T04:35:52.726Z,640.10
2023-02-06T04:38:59.549Z,628.53
2023-02-06T04:42:05.836Z,625.70
2023-02-06T04:45:15.745Z,637.03
2023-02-06T04:48:24.714Z,639.77
2023-02-06T04:51:31.491Z,696.21
2023-02-06T04:54:37.459Z,705.25
2023-02-06T04:57:44.539Z,679.60
2023-02-06T05:00:58.452Z,819.47
2023-02-06T05:04:05.460Z,797.27
2023-02-06T05:07:11.379Z,834.78
2023-02-06T05:10:18.691Z,810.08
2023-02-06T05:13:30.480Z,786.74
2023-02-06T05:16:39.901Z,796.52
2023-02-06T05:19:46.119Z,830.22
2023-02-06T05:22:52.902Z,953.01
2023-02-06T05:25:59.806Z,957.17
2023-02-06T05:29:27.770Z,914.26
2023-02-06T05:32:36.266Z,939.12
2023-02-06T05:35:43.904Z,950.30
2023-02-06T05:38:54.122Z,978.26
2023-02-06T05:42:00.960Z,1158.82
2023-02-06T05:45:08.586Z,1223.15
2023-02-06T05:48:17.933Z,1210.26
2023-02-06T05:51:23.778Z,1229.46
2023-02-06T05:54:30.615Z,1505.34
2023-02-06T05:57:36.693Z,1937.95
2023-02-06T06:00:51.493Z,2038.63
2023-02-06T06:04:09.723Z,1653.59
2023-02-06T06:07:16.691Z,1475.45
2023-02-06T06:10:22.940Z,1350.73
2023-02-06T06:13:30.611Z,1146.48
2023-02-06T06:16:41.788Z,1060.13
2023-02-06T06:19:51.225Z,1076.19
2023-02-06T06:22:57.338Z,1153.82
2023-02-06T06:26:04.139Z,1192.04
2023-02-06T06:29:15.179Z,1100.91
2023-02-06T06:32:22.488Z,1033.78
2023-02-06T06:35:31.180Z,974.64
2023-02-06T06:38:38.707Z,980.07
2023-02-06T06:41:44.950Z,966.25
2023-02-06T06:44:51.799Z,867.47
2023-02-06T06:47:57.914Z,771.81
2023-02-06T06:51:07.841Z,695.23
2023-02-06T06:54:14.702Z,662.36
2023-02-06T06:57:23.828Z,714.51
2023-02-06T07:00:41.422Z,741.36
2023-02-06T07:03:49.265Z,649.64
2023-02-06T07:06:57.877Z,598.74
2023-02-06T07:10:04.867Z,589.55
2023-02-06T07:13:11.027Z,557.31
2023-02-06T07:16:17.910Z,495.66
2023-02-06T07:19:24.308Z,453.71
2023-02-06T07:22:51.528Z,444.39
2023-02-06T07:26:08.902Z,401.52
2023-02-06T07:29:27.213Z,407.80
2023-02-06T07:32:33.999Z,403.20
2023-02-06T07:35:39.853Z,401.07
2023-02-06T07:38:51.249Z,410.42
2023-02-06T07:41:57.290Z,386.72
2023-02-06T07:45:17.152Z,375.89
2023-02-06T07:48:23.215Z,384.02
2023-02-06T07:51:33.042Z,403.54
2023-02-06T07:54:41.643Z,396.87
2023-02-06T07:57:48.490Z,379.37
2023-02-06T08:00:54.963Z,342.72
2023-02-06T08:04:08.897Z,340.37
2023-02-06T08:07:16.713Z,336.14
2023-02-06T08:10:32.929Z,347.52
2023-02-06T08:13:43.070Z,384.30
2023-02-06T08:16:49.884Z,388.28
2023-02-06T08:20:06.837Z,397.30
2023-02-06T08:23:13.607Z,386.67
2023-02-06T08:26:22.380Z,342.49
2023-02-06T08:29:30.041Z,327.17
2023-02-06T08:32:39.481Z,297.57
2023-02-06T08:35:52.378Z,300.57
2023-02-06T08:39:09.873Z,321.13
2023-02-06T08:42:19.273Z,315.83
2023-02-06T08:45:30.426Z,297.06
2023-02-06T08:48:37.248Z,280.40
2023-02-06T08:51:44.372Z,282.27
2023-02-06T08:54:54.135Z,234.56
2023-02-06T08:58:08.901Z,225.95
2023-02-06T09:01:26.731Z,204.24
2023-02-06T09:04:35.759Z,211.60
2023-02-06T09:07:42.514Z,208.17
2023-02-06T09:10:48.420Z,193.88
2023-02-06T09:14:01.303Z,175.20
2023-02-06T09:17:07.478Z,135.21
2023-02-06T09:20:14.585Z,136.89
2023-02-06T09:23:20.826Z,129.75
2023-02-06T09:26:30.918Z,124.63
2023-02-06T09:29:39.670Z,129.49
2023-02-06T09:32:46.707Z,116.20
2023-02-06T09:35:52.746Z,120.13
2023-02-06T09:39:00.796Z,125.99
2023-02-06T09:42:15.072Z,125.36
2023-02-06T09:45:30.395Z,119.08
2023-02-06T09:48:42.325Z,119.61
2023-02-06T09:52:29.240Z,101.81
2023-02-06T09:55:47.511Z,100.53
2023-02-06T09:59:07.541Z,100.76
2023-02-06T10:02:47.932Z,92.34
2023-02-06T10:06:14.381Z,94.31
2023-02-06T10:09:31.612Z,97.38
2023-02-06T10:12:47.995Z,103.49
2023-02-06T10:16:02.286Z,95.91
2023-02-06T10:19:24.472Z,102.41
2023-02-06T10:22:42.071Z,99.46
2023-02-06T10:26:17.590Z,98.84
2023-02-06T10:29:31.876Z,106.89
2023-02-06T10:32:54.198Z,112.22
2023-02-06T10:36:25.617Z,114.84
2023-02-06T10:40:04.361Z,121.43
2023-02-06T10:43:29.354Z,128.75
2023-02-06T10:46:48.433Z,151.98
2023-02-06T10:50:05.050Z,168.21
2023-02-06T10:53:25.112Z,152.42
2023-02-06T10:56:38.804Z,153.59
2023-02-06T10:59:57.740Z,152.44
2023-02-06T11:03:11.015Z,143.60
2023-02-06T11:06:26.008Z,143.87
2023-02-06T11:09:40.245Z,139.00
2023-02-06T11:13:03.944Z,140.18
2023-02-06T11:16:23.660Z,138.89
2023-02-06T11:19:40.603Z,135.94
2023-02-06T11:22:53.012Z,129.95
2023-02-06T11:26:17.493Z,125.42
2023-02-06T11:29:30.000Z,118.40
2023-02-06T11:32:52.901Z,117.35
2023-02-06T11:36:33.021Z,129.87
2023-02-06T11:39:42.608Z,142.96
2023-02-06T11:42:55.664Z,136.77
2023-02-06T11:46:21.615Z,149.03
2023-02-06T11:49:31.945Z,153.08
2023-02-06T11:52:38.983Z,152.60
2023-02-06T11:55:45.623Z,160.12
2023-02-06T11:59:14.890Z,159.92
2023-02-06T12:02:36.674Z,166.31
2023-02-06T12:05:47.357Z,176.01
2023-02-06T12:08:56.620Z,177.84
2023-02-06T12:12:13.331Z,165.85
2023-02-06T12:15:45.369Z,159.54
2023-02-06T12:19:00.683Z,182.71
2023-02-06T12:22:21.613Z,159.47
2023-02-06T12:25:36.107Z,150.73
2023-02-06T12:28:57.827Z,149.94
2023-02-06T12:32:18.379Z,144.11
2023-02-06T12:35:45.425Z,163.26
2023-02-06T12:39:01.304Z,162.06
2023-02-06T12:42:37.218Z,153.50
2023-02-06T12:45:55.211Z,129.97
2023-02-06T12:49:18.831Z,125.62
2023-02-06T12:52:34.579Z,136.44
2023-02-06T12:56:00.631Z,130.72
2023-02-06T13:00:10.960Z,137.00
2023-02-06T13:03:30.446Z,139.33
2023-02-06T13:07:02.727Z,152.28
2023-02-06T13:10:30.057Z,128.29
2023-02-06T13:13:43.749Z,126.86
2023-02-06T13:16:58.435Z,125.30
2023-02-06T13:20:17.860Z,127.65
2023-02-06T13:23:29.568Z,123.69
2023-02-06T13:27:16.728Z,128.09
2023-02-06T13:30:51.070Z,124.37
2023-02-06T13:34:04.443Z,121.21
2023-02-06T13:37:30.925Z,126.12
2023-02-06T13:40:40.825Z,125.15
2023-02-06T13:43:57.111Z,121.34
2023-02-06T13:47:34.885Z,138.08
2023-02-06T13:51:17.028Z,149.70
2023-02-06T13:55:06.218Z,138.63
2023-02-06T13:58:48.808Z,159.77
2023-02-06T14:01:57.611Z,155.77
2023-02-06T14:05:07.991Z,137.32
2023-02-06T14:08:30.588Z,157.32
2023-02-06T14:12:17.997Z,149.23
2023-02-06T14:15:45.143Z,158.22
2023-02-06T14:19:09.075Z,146.59
2023-02-06T14:22:38.189Z,131.57
2023-02-06T14:26:16.000Z,137.49
2023-02-06T14:29:49.069Z,151.99
2023-02-06T14:33:19.625Z,179.25
2023-02-06T14:37:04.001Z,176.05
2023-02-06T14:40:22.674Z,158.02
2023-02-06T14:43:38.278Z,132.16
2023-02-06T14:46:45.297Z,127.18
2023-02-06T14:49:58.331Z,130.94
2023-02-06T14:53:12.632Z,252.62
2023-02-06T14:56:27.165Z,274.19
2023-02-06T14:59:34.129Z,240.68
2023-02-06T15:02:41.328Z,219.66
2023-02-06T15:05:50.448Z,197.69
2023-02-06T15:08:57.761Z,170.21
2023-02-06T15:12:21.536Z,188.86
2023-02-06T15:15:32.357Z,212.00
2023-02-06T15:18:40.449Z,194.44
2023-02-06T15:21:50.927Z,205.92
2023-02-06T15:25:22.112Z,180.43
2023-02-06T15:28:33.914Z,157.18
2023-02-06T15:31:39.988Z,145.34
2023-02-06T15:34:49.916Z,149.29
2023-02-06T15:37:59.731Z,157.47
2023-02-06T15:41:11.632Z,152.01
2023-02-06T15:44:31.276Z,154.17
2023-02-06T15:47:39.280Z,191.48
2023-02-06T15:50:57.359Z,203.44
2023-02-06T15:54:23.851Z,179.02
2023-02-06T15:57:36.657Z,189.47
2023-02-06T16:00:45.625Z,206.16
2023-02-06T16:04:01.476Z,245.31
2023-02-06T16:07:19.367Z,272.61
2023-02-06T16:10:32.120Z,317.62
2023-02-06T16:13:40.216Z,307.76
2023-02-06T16:17:01.363Z,389.64
2023-02-06T16:20:33.407Z,413.13
2023-02-06T16:23:49.850Z,318.77
2023-02-06T16:26:59.499Z,267.18
2023-02-06T16:30:06.356Z,279.01
2023-02-06T16:33:28.961Z,240.93
2023-02-06T16:36:36.411Z,234.50
2023-02-06T16:39:45.541Z,258.85
2023-02-06T16:42:54.319Z,253.91
2023-02-06T16:46:02.872Z,234.24
2023-02-06T16:49:15.148Z,228.36
2023-02-06T16:52:28.473Z,240.01
2023-02-06T16:55:34.699Z,271.95
2023-02-06T16:58:46.729Z,291.64
2023-02-06T17:01:52.840Z,293.13
2023-02-06T17:05:00.008Z,306.52
2023-02-06T17:08:16.579Z,361.50
2023-02-06T17:11:23.437Z,372.82
2023-02-06T17:14:34.896Z,387.82
2023-02-06T17:17:43.032Z,328.93
2023-02-06T17:20:53.731Z,333.92
2023-02-06T17:24:00.657Z,322.25
2023-02-06T17:27:07.467Z,334.87
2023-02-06T17:30:22.837Z,350.50
2023-02-06T17:33:28.962Z,434.96
2023-02-06T17:36:39.804Z,418.37
2023-02-06T17:39:45.866Z,443.25
2023-02-06T17:42:53.787Z,437.75
2023-02-06T17:46:02.528Z,410.16
2023-02-06T17:49:09.558Z,463.61
2023-02-06T17:52:16.488Z,529.53
2023-02-06T17:55:24.020Z,633.44
2023-02-06T17:58:33.464Z,705.13
2023-02-06T18:01:43.373Z,636.02
2023-02-06T18:04:53.613Z,591.22
2023-02-06T18:08:01.192Z,563.53
2023-02-06T18:11:12.304Z,530.07
2023-02-06T18:14:21.103Z,518.78
2023-02-06T18:17:31.129Z,554.07
2023-02-06T18:20:39.449Z,518.91
2023-02-06T18:23:46.591Z,480.37
2023-02-06T18:26:53.487Z,1410.34
2023-02-06T18:29:59.870Z,2198.30
2023-02-06T18:33:09.649Z,2369.54
2023-02-06T18:36:15.945Z,2337.39
2023-02-06T18:39:23.400Z,1870.54
2023-02-06T18:42:42.872Z,1854.20
2023-02-06T18:46:10.203Z,2314.54
2023-02-06T18:49:33.541Z,2122.41
2023-02-06T18:52:54.408Z,1897.29
2023-02-06T18:56:18.754Z,1646.74
2023-02-06T18:59:42.668Z,1481.59
2023-02-06T19:03:03.632Z,1522.81
2023-02-06T19:06:32.148Z,1461.34
2023-02-06T19:10:00.888Z,1428.80
2023-02-06T19:13:21.513Z,3287.77
2023-02-06T19:16:47.555Z,2742.65
2023-02-06T19:20:11.081Z,2561.18
2023-02-06T19:23:35.145Z,3173.08
2023-02-06T19:26:56.734Z,2584.26
2023-02-06T19:30:17.977Z,1981.81
2023-02-06T19:33:43.837Z,1628.37
2023-02-06T19:37:04.708Z,1944.17
2023-02-06T19:40:28.119Z,2698.00
2023-02-06T19:43:49.554Z,3222.99
2023-02-06T19:47:10.366Z,2925.12
2023-02-06T19:50:31.170Z,2690.55
2023-02-06T19:53:53.844Z,2522.47
2023-02-06T19:57:19.591Z,2329.55
2023-02-06T20:00:40.610Z,2525.63
2023-02-06T20:04:04.081Z,2487.71
2023-02-06T20:07:24.878Z,2254.82
2023-02-06T20:10:45.769Z,2374.21
2023-02-06T20:14:09.617Z,2196.97
2023-02-06T20:17:33.179Z,2083.02
2023-02-06T20:20:53.956Z,1938.87
2023-02-06T20:24:25.477Z,1933.87
2023-02-06T20:27:46.298Z,1928.02
2023-02-06T20:31:14.731Z,2043.06
2023-02-06T20:34:36.154Z,2090.25
2023-02-06T20:38:08.884Z,2316.24
2023-02-06T20:41:33.164Z,2483.16
2023-02-06T20:44:54.032Z,2966.95
2023-02-06T20:48:17.726Z,3355.02
2023-02-06T20:51:38.808Z,2975.29
2023-02-06T20:55:02.360Z,2641.18
2023-02-06T20:58:23.527Z,2554.64
2023-02-06T21:01:45.451Z,2690.14
2023-02-06T21:05:09.645Z,2822.44
2023-02-06T21:08:33.560Z,2642.92
2023-02-06T21:11:57.618Z,2586.89
2023-02-06T21:15:21.417Z,2481.30
2023-02-06T21:18:42.926Z,2406.88
2023-02-06T21:22:07.108Z,2431.68
2023-02-06T21:25:28.650Z,3587.62
2023-02-06T21:28:50.248Z,2835.12
2023-02-06T21:32:14.636Z,2688.27
2023-02-06T21:35:37.112Z,3201.93
2023-02-06T21:39:00.964Z,3408.27
2023-02-06T21:42:26.433Z,3088.77
2023-02-06T21:45:50.128Z,2872.65
2023-02-06T21:49:11.871Z,2717.84
2023-02-06T21:52:32.654Z,2887.84
2023-02-06T21:55:55.943Z,2853.73
2023-02-06T21:59:16.957Z,2977.70
2023-02-06T22:02:37.607Z,2725.64
2023-02-06T22:06:12.710Z,2565.48
2023-02-06T22:09:33.662Z,2403.41
2023-02-06T22:12:57.097Z,2440.10
2023-02-06T22:16:21.804Z,2647.01
2023-02-06T22:19:42.716Z,2605.51
2023-02-06T22:23:06.664Z,2335.89
2023-02-06T22:26:30.353Z,2352.41
2023-02-06T22:29:53.618Z,2423.37
2023-02-06T22:33:14.276Z,2400.96
2023-02-06T22:36:38.034Z,2365.43
2023-02-06T22:39:59.283Z,2448.16
2023-02-06T22:43:19.975Z,2406.45
2023-02-06T22:46:43.478Z,2376.35
2023-02-06T22:50:04.108Z,2368.23
2023-02-06T22:53:35.160Z,2834.17
2023-02-06T22:56:55.857Z,2725.71
2023-02-06T23:00:18.697Z,2633.21
2023-02-06T23:03:41.997Z,2664.47
2023-02-06T23:07:06.183Z,2620.89
2023-02-06T23:10:33.014Z,2579.68
2023-02-06T23:13:56.401Z,2340.35
2023-02-06T23:17:17.085Z,2425.79
2023-02-06T23:20:42.016Z,2024.30
2023-02-06T23:24:03.232Z,2074.43
2023-02-06T23:27:25.518Z,1978.95
2023-02-06T23:30:46.324Z,2000.43
2023-02-06T23:34:07.325Z,2064.84
2023-02-06T23:37:30.622Z,2305.26
2023-02-06T23:40:51.600Z,1867.36
2023-02-06T23:44:18.358Z,1728.72
2023-02-06T23:47:39.778Z,1819.16
2023-02-06T23:51:00.781Z,2084.76
2023-02-06T23:54:24.640Z,1861.17
2023-02-06T23:57:45.387Z,1769.95
